Time;durP1;ratioP1;P1;durP2;ratioP2;P2;SDS_P1;SDS_P2;PMS_P1;PMS_P2;Temp;Humidity;BMP_temperature;BMP_pressure;BME280_temperature;BME280_humidity;BME280_pressure;Samples;Min_cycle;Max_cycle;Signal;HPM_P1;HPM_P2
2023/09/07 00:01:32;;;;;;;;;;;;;;;24.43;47.63;99217.09;4999333;28;19919;-76
2023/09/07 00:03:57;;;;;;;;;;;;;;;24.42;47.61;99223.44;5015220;28;20438;-76
2023/09/07 00:06:23;;;;;;;;;;;;;;;24.41;47.35;99226.31;5031959;28;19963;-76
2023/09/07 00:08:48;;;;;;;;;;;;;;;24.42;47.56;99217.31;5014979;28;19971;-78
2023/09/07 00:11:13;;;;;;;;;;;;;;;24.40;47.24;99217.50;5015927;28;19920;-76
2023/09/07 00:13:39;;;;;;;;;;;;;;;24.39;47.21;99213.16;5032098;28;20004;-79
2023/09/07 00:16:04;;;;;;;;;;;;;;;24.37;47.32;99215.22;5033072;28;19971;-77
2023/09/07 00:18:33;;;;;;;;;;;;;;;24.34;47.26;99211.09;5015039;28;20003;-77
2023/09/07 00:20:58;;;;;;;;;;;;;;;24.33;47.33;99217.44;5014845;28;19913;-77
2023/09/07 00:23:23;;;;;;;;;;;;;;;24.32;47.29;99222.97;5014576;28;19947;-77
2023/09/07 00:25:49;;;;;;;;;;;;;;;24.31;47.31;99224.00;5032618;28;19917;-77
2023/09/07 00:28:14;;;;;;;;;;;;;;;24.29;47.28;99216.19;5032801;28;20005;-77
2023/09/07 00:30:40;;;;;;;;;;;;;;;24.29;47.22;99218.00;5033394;28;20295;-77
2023/09/07 00:33:05;;;;;;;;;;;;;;;24.27;47.08;99225.38;5032877;28;19913;-77
2023/09/07 00:35:31;;;;;;;;;;;;;;;24.25;46.95;99220.25;5031185;28;19921;-77
2023/09/07 00:37:56;;;;;;;;;;;;;;;24.24;46.82;99218.59;5031502;28;20016;-77
2023/09/07 00:40:26;;;;;;;;;;;;;;;24.23;46.88;99214.28;5015204;28;20047;-76
2023/09/07 00:42:51;;;;;;;;;;;;;;;24.20;46.77;99210.16;5001542;28;19913;-76
2023/09/07 00:45:16;;;;;;;;;;;;;;;24.19;46.64;99216.53;5032601;28;20009;-76
2023/09/07 00:47:42;;;;;;;;;;;;;;;24.17;46.72;99221.22;5031174;28;19913;-77
2023/09/07 00:50:07;;;;;;;;;;;;;;;24.13;46.68;99209.31;5031370;28;19967;-77
2023/09/07 00:52:33;;;;;;;;;;;;;;;24.13;46.85;99221.78;5014721;28;19951;-78
2023/09/07 00:54:58;;;;;;;;;;;;;;;24.11;46.71;99219.31;5014599;28;19916;-78
2023/09/07 00:57:24;;;;;;;;;;;;;;;24.10;46.62;99215.00;5014886;28;19913;-78
2023/09/07 00:59:49;;;;;;;;;;;;;;;24.09;46.66;99216.03;5031222;28;20008;-78
2023/09/07 01:02:15;;;;;;;;;;;;;;;24.08;46.60;99221.56;5014937;28;19993;-78
2023/09/07 01:04:42;;;;;;;;;;;;;;;24.07;46.53;99222.56;5031410;28;20300;-77
2023/09/07 01:07:14;;;;;;;;;;;;;;;24.05;46.42;99220.09;5031064;28;20012;-78
2023/09/07 01:09:40;;;;;;;;;;;;;;;24.05;46.43;99224.59;5031635;28;20380;-78
2023/09/07 01:12:10;;;;;;;;;;;;;;;24.05;46.21;99220.09;5030938;28;19913;-77
2023/09/07 01:14:35;;;;;;;;;;;;;;;24.04;46.01;99215.78;5032289;28;19920;-76
2023/09/07 01:17:01;;;;;;;;;;;;;;;24.03;45.80;99212.28;5030833;28;19913;-77
2023/09/07 01:19:26;;;;;;;;;;;;;;;24.03;45.81;99214.94;5014483;28;20304;-77
2023/09/07 01:21:51;;;;;;;;;;;;;;;24.02;45.78;99204.47;5034521;28;19913;-77
2023/09/07 01:24:16;;;;;;;;;;;;;;;24.02;45.61;99213.31;5035072;28;19916;-77
2023/09/07 01:26:42;;;;;;;;;;;;;;;24.00;45.55;99209.19;5034972;28;19913;-78
2023/09/07 01:29:08;;;;;;;;;;;;;;;23.98;45.29;99209.38;5002358;28;19913;-78
2023/09/07 01:31:40;;;;;;;;;;;;;;;23.99;45.00;99215.53;5034898;28;19920;-78
2023/09/07 01:34:06;;;;;;;;;;;;;;;23.98;44.79;99213.88;5034659;28;19956;-79
2023/09/07 01:36:31;;;;;;;;;;;;;;;23.98;44.66;99219.22;5018744;28;20040;-79
2023/09/07 01:38:57;;;;;;;;;;;;;;;23.97;44.44;99213.06;5034910;28;19967;-80
2023/09/07 01:41:22;;;;;;;;;;;;;;;23.97;44.42;99214.88;5036314;28;20003;-79
2023/09/07 01:43:48;;;;;;;;;;;;;;;23.96;44.21;99216.75;5018915;28;20343;-79
2023/09/07 01:46:13;;;;;;;;;;;;;;;23.95;44.05;99212.41;5036127;28;20350;-79
2023/09/07 01:48:38;;;;;;;;;;;;;;;23.94;44.06;99208.13;5017856;28;19913;-79
2023/09/07 01:51:03;;;;;;;;;;;;;;;23.92;44.06;99206.66;5017724;28;19940;-79
2023/09/07 01:53:29;;;;;;;;;;;;;;;23.91;44.04;99205.84;5018332;28;20027;-79
2023/09/07 01:55:55;;;;;;;;;;;;;;;23.90;43.94;99209.50;5035538;28;19913;-80
2023/09/07 01:58:21;;;;;;;;;;;;;;;23.89;43.92;99212.38;5017753;28;19917;-79
2023/09/07 02:00:46;;;;;;;;;;;;;;;23.87;43.86;99212.56;5001401;28;19975;-80
2023/09/07 02:03:11;;;;;;;;;;;;;;;23.86;44.00;99212.75;5035684;28;19913;-77
2023/09/07 02:05:36;;;;;;;;;;;;;;;23.86;43.92;99207.41;5035165;28;19917;-79
2023/09/07 02:08:02;;;;;;;;;;;;;;;23.83;44.00;99211.25;5017890;28;19913;-76
2023/09/07 02:10:27;;;;;;;;;;;;;;;23.81;43.96;99208.78;5017174;28;20391;-76
2023/09/07 02:12:52;;;;;;;;;;;;;;;23.79;43.89;99200.16;5033910;28;19920;-77
2023/09/07 02:15:18;;;;;;;;;;;;;;;23.77;43.81;99204.88;5035320;28;19920;-76
2023/09/07 02:17:46;;;;;;;;;;;;;;;23.73;43.67;99200.91;5017670;28;20343;-76
2023/09/07 02:20:11;;;;;;;;;;;;;;;23.72;43.72;99209.09;5035018;28;19996;-76
2023/09/07 02:22:37;;;;;;;;;;;;;;;23.72;43.66;99211.75;5033849;28;19960;-76
2023/09/07 02:25:03;;;;;;;;;;;;;;;23.71;43.51;99220.78;5033992;28;19920;-76
2023/09/07 02:27:28;;;;;;;;;;;;;;;23.69;43.64;99221.00;5034431;28;19928;-77
2023/09/07 02:29:54;;;;;;;;;;;;;;;23.68;43.74;99222.00;5034563;28;19913;-77
2023/09/07 02:32:19;;;;;;;;;;;;;;;23.69;44.02;99225.47;5034764;28;19921;-78
2023/09/07 02:34:44;;;;;;;;;;;;;;;23.66;44.05;99216.84;5036084;28;20296;-78
2023/09/07 02:37:09;;;;;;;;;;;;;;;23.65;43.77;99217.84;5035573;28;19921;-77
2023/09/07 02:39:35;;;;;;;;;;;;;;;23.64;43.51;99226.88;5034216;28;19960;-77
2023/09/07 02:42:00;;;;;;;;;;;;;;;23.62;43.51;99220.91;5035121;28;19913;-77
2023/09/07 02:44:25;;;;;;;;;;;;;;;23.59;43.77;99215.94;5035216;28;20362;-76
2023/09/07 02:46:51;;;;;;;;;;;;;;;23.58;43.82;99219.66;5034843;28;19913;-76
2023/09/07 02:49:16;;;;;;;;;;;;;;;23.56;43.53;99216.34;5034274;28;19982;-76
2023/09/07 02:51:41;;;;;;;;;;;;;;;23.54;43.80;99218.38;5035295;28;19917;-76
2023/09/07 02:54:06;;;;;;;;;;;;;;;23.53;44.02;99227.38;5033676;28;20019;-76
2023/09/07 02:56:32;;;;;;;;;;;;;;;23.51;43.82;99224.06;5034058;28;19919;-76
2023/09/07 02:58:57;;;;;;;;;;;;;;;23.48;43.53;99222.63;5034803;28;19963;-77
2023/09/07 03:01:22;;;;;;;;;;;;;;;23.46;43.61;99215.81;5033636;28;20304;-77
2023/09/07 03:03:48;;;;;;;;;;;;;;;23.44;43.43;99217.84;5034442;28;19920;-77
2023/09/07 03:06:14;;;;;;;;;;;;;;;23.43;43.26;99218.88;5033619;28;19913;-76
2023/09/07 03:08:40;;;;;;;;;;;;;;;23.41;42.95;99224.38;5034723;28;19920;-77
2023/09/07 03:11:05;;;;;;;;;;;;;;;23.39;43.13;99223.75;5033520;28;19919;-78
2023/09/07 03:13:31;;;;;;;;;;;;;;;23.37;43.03;99217.78;5012710;28;19955;-76
2023/09/07 03:15:56;;;;;;;;;;;;;;;23.35;43.06;99219.81;4980498;28;19971;-76
2023/09/07 03:18:22;;;;;;;;;;;;;;;23.32;43.29;99211.38;5013144;28;19914;-76
2023/09/07 03:20:47;;;;;;;;;;;;;;;23.30;43.00;99214.22;5012953;28;20027;-76
2023/09/07 03:23:12;;;;;;;;;;;;;;;23.29;43.09;99212.56;5014531;28;19914;-77
2023/09/07 03:25:37;;;;;;;;;;;;;;;23.27;43.10;99215.41;5013009;28;20396;-77
2023/09/07 03:28:03;;;;;;;;;;;;;;;23.27;43.10;99218.06;5012842;28;19913;-77
2023/09/07 03:30:28;;;;;;;;;;;;;;;23.26;42.94;99220.91;5012935;28;19921;-79
2023/09/07 03:32:54;;;;;;;;;;;;;;;23.24;43.16;99215.78;4996247;28;19921;-77
2023/09/07 03:35:20;;;;;;;;;;;;;;;23.23;42.96;99211.50;4996034;28;19917;-78
2023/09/07 03:37:45;;;;;;;;;;;;;;;23.22;42.93;99219.66;5014708;28;19921;-76
2023/09/07 03:40:10;;;;;;;;;;;;;;;23.20;42.92;99214.53;4996216;28;20300;-77
2023/09/07 03:42:36;;;;;;;;;;;;;;;23.19;42.92;99218.19;5014041;28;20282;-78
2023/09/07 03:45:01;;;;;;;;;;;;;;;23.20;42.54;99219.00;4979786;28;19913;-78
2023/09/07 03:47:29;;;;;;;;;;;;;;;23.20;42.78;99222.50;5012855;28;19925;-78
2023/09/07 03:49:56;;;;;;;;;;;;;;;23.21;42.61;99221.47;5013896;28;19914;-76
2023/09/07 03:52:24;;;;;;;;;;;;;;;23.24;42.34;99221.09;4996852;28;19914;-78
2023/09/07 03:54:49;;;;;;;;;;;;;;;23.32;42.10;99220.19;5013059;28;20389;-78
2023/09/07 03:57:15;;;;;;;;;;;;;;;23.49;43.52;99221.59;5016914;28;19913;-85
2023/09/07 03:59:40;;;;;;;;;;;;;;;23.83;44.81;99222.78;5014898;28;19920;-80
2023/09/07 04:02:05;;;;;;;;;;;;;;;24.22;43.89;99223.31;5013258;28;19975;-82
2023/09/07 04:04:31;;;;;;;;;;;;;;;24.61;42.99;99216.63;4996169;28;20403;-81
2023/09/07 04:06:56;;;;;;;;;;;;;;;24.99;41.76;99223.38;4995405;28;19917;-79
2023/09/07 04:09:21;;;;;;;;;;;;;;;25.40;41.25;99219.88;5013428;28;20011;-77
2023/09/07 04:11:47;;;;;;;;;;;;;;;25.78;40.41;99222.00;5013198;28;19917;-78
2023/09/07 04:14:12;;;;;;;;;;;;;;;26.16;40.02;99216.88;5014252;28;19913;-79
2023/09/07 04:16:37;;;;;;;;;;;;;;;26.60;38.21;99217.22;4995892;28;19920;-84
2023/09/07 04:19:03;;;;;;;;;;;;;;;27.14;37.03;99219.75;5012544;28;19921;-77
2023/09/07 04:21:28;;;;;;;;;;;;;;;27.79;35.98;99220.41;5011881;28;19919;-76
2023/09/07 04:23:53;;;;;;;;;;;;;;;28.28;35.19;99230.59;5012114;28;20406;-77
2023/09/07 04:26:19;;;;;;;;;;;;;;;28.80;34.63;99228.41;5012034;28;19913;-73
2023/09/07 04:28:44;;;;;;;;;;;;;;;29.49;33.25;99221.97;5013062;28;19956;-74
2023/09/07 04:31:09;;;;;;;;;;;;;;;30.15;32.33;99222.84;5011951;28;20000;-79
2023/09/07 04:33:35;;;;;;;;;;;;;;;30.65;30.89;99227.75;5012948;28;19920;-82
2023/09/07 04:36:10;;;;;;;;;;;;;;;31.17;29.51;99226.97;5011916;28;19922;-82
2023/09/07 04:38:35;;;;;;;;;;;;;;;31.65;28.72;99232.16;4995763;28;19913;-80
2023/09/07 04:41:10;;;;;;;;;;;;;;;32.17;27.85;99241.97;5013157;28;19913;-80
2023/09/07 04:43:35;;;;;;;;;;;;;;;32.68;27.28;99240.00;5013214;28;19913;-81
2023/09/07 04:46:01;;;;;;;;;;;;;;;33.05;26.34;99231.28;5011858;28;19919;-80
2023/09/07 04:48:26;;;;;;;;;;;;;;;33.49;25.56;99239.31;4995413;28;19917;-81
2023/09/07 04:50:58;;;;;;;;;;;;;;;33.86;25.44;99245.94;5013016;28;19920;-81
2023/09/07 04:53:23;;;;;;;;;;;;;;;34.22;24.96;99251.59;5011916;28;20289;-81
2023/09/07 04:55:49;;;;;;;;;;;;;;;34.61;24.17;99248.63;5012043;28;19924;-81
2023/09/07 04:58:14;;;;;;;;;;;;;;;34.99;23.99;99252.06;5012684;28;19921;-82
2023/09/07 05:00:39;;;;;;;;;;;;;;;35.28;23.95;99254.34;5011531;28;19979;-81
2023/09/07 05:03:05;;;;;;;;;;;;;;;35.55;23.45;99250.63;5011569;28;20511;-82
2023/09/07 05:05:30;;;;;;;;;;;;;;;35.83;23.42;99254.75;4995570;28;19920;-82
2023/09/07 05:08:22;;;;;;;;;;;;;;;36.12;23.09;99246.88;5012340;28;19914;-84
2023/09/07 05:10:48;;;;;;;;;;;;;;;36.51;22.82;99254.41;5012231;28;19917;-84
2023/09/07 05:13:13;;;;;;;;;;;;;;;36.75;22.27;99251.94;5014835;28;19921;-88
2023/09/07 05:15:46;;;;;;;;;;;;;;;37.00;22.19;99257.53;4987981;28;19968;-94
2023/09/07 05:18:12;;;;;;;;;;;;;;;37.22;22.24;99251.75;4998601;28;19913;-80
2023/09/07 05:20:37;;;;;;;;;;;;;;;37.45;21.70;99255.69;5012605;28;19975;-75
2023/09/07 05:23:02;;;;;;;;;;;;;;;37.53;21.37;99265.97;5012607;28;20403;-74
2023/09/07 05:25:27;;;;;;;;;;;;;;;37.71;21.39;99255.53;5012281;28;20334;-76
2023/09/07 05:27:53;;;;;;;;;;;;;;;37.86;21.25;99260.03;5011458;28;19917;-75
2023/09/07 05:30:18;;;;;;;;;;;;;;;38.03;21.17;99256.91;4995081;28;19917;-74
2023/09/07 05:32:45;;;;;;;;;;;;;;;38.15;21.21;99258.19;5011451;28;20015;-76
2023/09/07 05:35:11;;;;;;;;;;;;;;;38.35;20.97;99267.25;5010721;28;20405;-78
2023/09/07 05:37:37;;;;;;;;;;;;;;;38.46;20.78;99263.34;4994925;28;19921;-78
2023/09/07 05:40:03;;;;;;;;;;;;;;;38.57;20.64;99269.47;5011180;28;19966;-80
2023/09/07 05:42:28;;;;;;;;;;;;;;;38.82;20.40;99265.66;5012057;28;19913;-77
2023/09/07 05:44:54;;;;;;;;;;;;;;;38.84;20.20;99263.47;5011410;28;19913;-77
2023/09/07 05:47:19;;;;;;;;;;;;;;;38.97;20.25;99261.94;4994845;28;19920;-77
2023/09/07 05:49:44;;;;;;;;;;;;;;;39.07;19.93;99267.28;4994886;28;19914;-77
2023/09/07 05:52:10;;;;;;;;;;;;;;;39.16;19.67;99264.72;4994803;28;19914;-76
2023/09/07 05:54:35;;;;;;;;;;;;;;;39.24;19.70;99271.44;5012113;28;19913;-74
2023/09/07 05:57:00;;;;;;;;;;;;;;;39.35;20.23;99272.13;5019732;28;19921;-82
2023/09/07 05:59:25;;;;;;;;;;;;;;;39.41;19.97;99273.63;4995070;28;19975;-80
2023/09/07 06:01:51;;;;;;;;;;;;;;;39.53;19.74;99270.50;5011306;28;19913;-78
2023/09/07 06:04:16;;;;;;;;;;;;;;;39.70;19.79;99264.50;5012296;28;19920;-82
2023/09/07 06:06:41;;;;;;;;;;;;;;;39.79;19.96;99263.53;5001051;28;21337;-83
2023/09/07 06:09:07;;;;;;;;;;;;;;;39.93;19.52;99266.31;5034158;28;19928;-84
2023/09/07 06:11:32;;;;;;;;;;;;;;;39.96;19.88;99259.41;5018181;28;19952;-84
2023/09/07 06:13:58;;;;;;;;;;;;;;;40.07;19.55;99260.88;5034530;28;19917;-85
2023/09/07 06:16:23;;;;;;;;;;;;;;;40.09;19.33;99261.41;5018386;28;19960;-86
2023/09/07 06:18:49;;;;;;;;;;;;;;;40.16;19.59;99258.28;5037934;28;19913;-87
2023/09/07 06:21:14;;;;;;;;;;;;;;;40.21;19.24;99257.38;5036907;28;20395;-82
2023/09/07 06:23:39;;;;;;;;;;;;;;;40.28;19.28;99258.63;5034608;28;19920;-84
2023/09/07 06:26:05;;;;;;;;;;;;;;;40.30;18.78;99250.91;5034959;28;20395;-86
2023/09/07 06:28:30;;;;;;;;;;;;;;;40.35;18.93;99244.53;5034168;28;19920;-81
2023/09/07 06:30:55;;;;;;;;;;;;;;;40.33;19.59;99244.03;5035791;28;19916;-83
2023/09/07 06:33:21;;;;;;;;;;;;;;;40.23;19.57;99244.22;5034897;28;19920;-83
2023/09/07 06:35:46;;;;;;;;;;;;;;;40.23;19.07;99255.97;5034718;28;19974;-83
2023/09/07 06:38:11;;;;;;;;;;;;;;;40.28;18.67;99246.84;5018064;28;19917;-83
2023/09/07 06:40:37;;;;;;;;;;;;;;;40.20;18.35;99248.38;5034495;28;20036;-83
2023/09/07 06:43:05;;;;;;;;;;;;;;;40.24;18.86;99245.84;5033926;28;19959;-85
2023/09/07 06:45:33;;;;;;;;;;;;;;;40.26;18.83;99247.16;5035455;28;19913;-87
2023/09/07 06:47:59;;;;;;;;;;;;;;;40.26;18.54;99244.41;5018117;28;19952;-84
2023/09/07 06:50:24;;;;;;;;;;;;;;;40.20;18.04;99244.81;5017910;28;19920;-83
2023/09/07 06:52:51;;;;;;;;;;;;;;;40.20;17.44;99242.09;5035482;28;20372;-87
2023/09/07 06:55:16;;;;;;;;;;;;;;;40.09;19.15;99238.72;5017838;28;19913;-78
2023/09/07 06:57:42;;;;;;;;;;;;;;;39.88;18.69;99247.25;5017602;28;19924;-80
2023/09/07 07:00:07;;;;;;;;;;;;;;;39.72;19.56;99248.63;5035138;28;19917;-77
2023/09/07 07:02:32;;;;;;;;;;;;;;;39.67;19.34;99251.44;5034637;28;19916;-81
2023/09/07 07:04:58;;;;;;;;;;;;;;;39.52;19.21;99252.44;5017034;28;19971;-81
2023/09/07 07:07:23;;;;;;;;;;;;;;;39.39;19.77;99254.00;5034687;28;19913;-79
2023/09/07 07:09:49;;;;;;;;;;;;;;;39.32;19.29;99240.75;5033729;28;19917;-83
2023/09/07 07:12:14;;;;;;;;;;;;;;;39.16;19.93;99248.34;5034848;28;19935;-86
2023/09/07 07:14:39;;;;;;;;;;;;;;;39.11;19.92;99250.31;5001259;28;20012;-83
2023/09/07 07:17:05;;;;;;;;;;;;;;;38.97;19.81;99248.28;5033568;28;20384;-84
2023/09/07 07:19:30;;;;;;;;;;;;;;;39.02;19.95;99250.94;5035508;28;19913;-82
2023/09/07 07:21:56;;;;;;;;;;;;;;;39.23;19.32;99246.03;5033404;28;19920;-84
2023/09/07 07:24:21;;;;;;;;;;;;;;;39.37;18.49;99248.03;5032624;28;19960;-82
2023/09/07 07:26:47;;;;;;;;;;;;;;;39.55;19.35;99246.44;4997957;28;19932;-83
2023/09/07 07:29:12;;;;;;;;;;;;;;;39.54;18.99;99244.81;4997493;28;19913;-78
2023/09/07 07:31:38;;;;;;;;;;;;;;;39.74;18.77;99252.69;5014638;28;20380;-79
2023/09/07 07:34:03;;;;;;;;;;;;;;;39.93;17.78;99254.53;5014133;28;19924;-80
2023/09/07 07:36:28;;;;;;;;;;;;;;;40.14;17.80;99261.31;4997424;28;19917;-77
2023/09/07 07:38:54;;;;;;;;;;;;;;;40.33;16.90;99255.78;5013075;28;19909;-85
2023/09/07 07:41:20;;;;;;;;;;;;;;;40.49;17.15;99258.25;4996510;28;20361;-77
2023/09/07 07:43:45;;;;;;;;;;;;;;;40.64;16.72;99257.13;4996531;28;19909;-78
2023/09/07 07:46:10;;;;;;;;;;;;;;;40.82;16.09;99253.47;5022391;28;19917;-79
2023/09/07 07:48:35;;;;;;;;;;;;;;;40.90;16.10;99260.19;5014746;28;19917;-77
2023/09/07 07:51:04;;;;;;;;;;;;;;;41.04;16.21;99255.50;5032261;28;19913;-79
2023/09/07 07:53:31;;;;;;;;;;;;;;;41.20;16.73;99250.50;5031984;28;19948;-86
2023/09/07 07:55:56;;;;;;;;;;;;;;;41.14;18.32;99248.19;5015917;28;19913;-77
2023/09/07 07:58:22;;;;;;;;;;;;;;;41.21;17.91;99254.03;5013499;28;19971;-78
2023/09/07 08:00:48;;;;;;;;;;;;;;;41.40;17.53;99256.63;5015394;28;20381;-78
2023/09/07 08:03:14;;;;;;;;;;;;;;;41.48;16.98;99252.34;5027195;28;19913;-77
2023/09/07 08:05:39;;;;;;;;;;;;;;;41.59;15.85;99253.72;5015917;28;19920;-77
2023/09/07 08:08:05;;;;;;;;;;;;;;;41.66;15.34;99248.63;5031761;28;20331;-78
2023/09/07 08:10:33;;;;;;;;;;;;;;;41.76;15.40;99242.09;5033047;28;19913;-76
2023/09/07 08:12:58;;;;;;;;;;;;;;;41.95;15.29;99252.88;5032028;28;19913;-81
2023/09/07 08:15:24;;;;;;;;;;;;;;;41.93;15.01;99246.91;5016010;28;19919;-81
2023/09/07 08:17:50;;;;;;;;;;;;;;;42.07;14.99;99246.81;5016005;28;19920;-79
2023/09/07 08:20:16;;;;;;;;;;;;;;;42.04;14.80;99244.69;5015941;28;20307;-78
2023/09/07 08:22:42;;;;;;;;;;;;;;;42.14;14.21;99252.66;5032305;28;20482;-82
2023/09/07 08:25:07;;;;;;;;;;;;;;;42.11;14.23;99247.78;5015667;28;19918;-79
2023/09/07 08:27:33;;;;;;;;;;;;;;;42.08;13.45;99249.25;5030306;28;19920;-79
2023/09/07 08:29:59;;;;;;;;;;;;;;;42.12;14.04;99249.41;5014336;28;19912;-80
2023/09/07 08:32:24;;;;;;;;;;;;;;;42.04;13.85;99263.88;5031000;28;19913;-81
2023/09/07 08:34:50;;;;;;;;;;;;;;;42.09;13.56;99245.34;4998075;28;20447;-80
2023/09/07 08:37:16;;;;;;;;;;;;;;;42.01;13.43;99248.06;5014289;28;19917;-79
2023/09/07 08:39:41;;;;;;;;;;;;;;;41.99;13.87;99255.78;5014702;28;19917;-81
2023/09/07 08:42:06;;;;;;;;;;;;;;;41.85;13.75;99253.13;5015545;28;20428;-79
2023/09/07 08:44:32;;;;;;;;;;;;;;;41.83;13.94;99258.09;5032144;28;20050;-80
2023/09/07 08:46:59;;;;;;;;;;;;;;;41.74;14.10;99244.34;5015508;28;19917;-79
2023/09/07 08:49:24;;;;;;;;;;;;;;;41.74;14.42;99247.09;4999042;28;20396;-79
2023/09/07 08:51:50;;;;;;;;;;;;;;;41.75;14.76;99254.19;5014348;28;19963;-80
2023/09/07 08:54:15;;;;;;;;;;;;;;;41.75;14.09;99240.47;5030781;28;20399;-77
2023/09/07 08:56:40;;;;;;;;;;;;;;;41.74;14.07;99244.34;5032326;28;20296;-77
2023/09/07 08:59:06;;;;;;;;;;;;;;;41.59;14.49;99240.84;5015439;28;19917;-81
2023/09/07 09:01:31;;;;;;;;;;;;;;;41.45;14.79;99234.63;5015649;28;19913;-80
2023/09/07 09:03:59;;;;;;;;;;;;;;;41.50;14.91;99245.44;5015580;28;20091;-79
2023/09/07 09:06:25;;;;;;;;;;;;;;;41.47;14.93;99235.13;5014909;28;19913;-80
2023/09/07 09:08:52;;;;;;;;;;;;;;;41.30;14.91;99226.75;4998534;28;19913;-81
2023/09/07 09:11:18;;;;;;;;;;;;;;;41.22;15.00;99226.34;5032643;28;19996;-81
2023/09/07 09:13:43;;;;;;;;;;;;;;;41.12;14.93;99225.75;5031229;28;20008;-79
2023/09/07 09:16:09;;;;;;;;;;;;;;;41.07;14.85;99218.50;5031451;28;19913;-81
2023/09/07 09:18:34;;;;;;;;;;;;;;;40.94;14.87;99217.38;5031366;28;19913;-79
2023/09/07 09:21:00;;;;;;;;;;;;;;;40.87;14.92;99217.00;5014475;28;19913;-80
2023/09/07 09:23:31;;;;;;;;;;;;;;;40.72;14.91;99204.41;5014642;28;20311;-81
2023/09/07 09:25:56;;;;;;;;;;;;;;;40.62;15.16;99201.91;5032670;28;20307;-79
2023/09/07 09:28:22;;;;;;;;;;;;;;;40.50;15.15;99195.03;5031016;28;20003;-79
2023/09/07 09:30:48;;;;;;;;;;;;;;;40.38;15.32;99193.91;5031127;28;20361;-78
2023/09/07 09:33:14;;;;;;;;;;;;;;;40.27;15.45;99193.28;5031113;28;19913;-80
2023/09/07 09:35:39;;;;;;;;;;;;;;;40.13;15.64;99193.28;5014185;28;19921;-78
2023/09/07 09:38:05;;;;;;;;;;;;;;;40.01;15.51;99191.06;4998290;28;19960;-81
2023/09/07 09:40:31;;;;;;;;;;;;;;;39.94;15.86;99182.38;5014560;28;19913;-80
2023/09/07 09:42:56;;;;;;;;;;;;;;;39.81;16.22;99181.25;5016844;28;19917;-81
2023/09/07 09:45:22;;;;;;;;;;;;;;;39.66;16.19;99176.06;5001665;28;19983;-80
2023/09/07 09:47:48;;;;;;;;;;;;;;;39.57;16.05;99167.75;5001658;28;19960;-80
2023/09/07 09:50:13;;;;;;;;;;;;;;;39.41;15.96;99167.13;5018001;28;19960;-78
2023/09/07 09:52:38;;;;;;;;;;;;;;;39.24;15.99;99162.25;5018442;28;19913;-79
2023/09/07 09:55:07;;;;;;;;;;;;;;;39.14;15.75;99157.75;5034343;28;20035;-81
2023/09/07 09:57:34;;;;;;;;;;;;;;;38.82;15.96;99156.53;5018473;28;19913;-80
2023/09/07 10:00:01;;;;;;;;;;;;;;;38.69;16.26;99155.34;5018778;28;19913;-81
2023/09/07 10:02:26;;;;;;;;;;;;;;;38.52;16.51;99169.47;5017967;28;19925;-79
2023/09/07 10:04:52;;;;;;;;;;;;;;;38.37;16.50;99175.88;5017765;28;20265;-78
2023/09/07 10:07:18;;;;;;;;;;;;;;;38.28;16.12;99158.53;5034500;28;19917;-79
2023/09/07 10:09:44;;;;;;;;;;;;;;;38.12;16.58;99155.16;5035679;28;19924;-78
2023/09/07 10:12:14;;;;;;;;;;;;;;;38.08;16.55;99147.84;5017875;28;20372;-78
2023/09/07 10:14:40;;;;;;;;;;;;;;;37.91;16.94;99154.56;5018251;28;19917;-80
2023/09/07 10:17:05;;;;;;;;;;;;;;;37.92;16.97;99156.16;5017796;28;19913;-78
2023/09/07 10:19:31;;;;;;;;;;;;;;;37.80;18.19;99161.22;5017345;28;19912;-81
2023/09/07 10:21:56;;;;;;;;;;;;;;;37.55;17.75;99156.78;5017767;28;19935;-77
2023/09/07 10:24:25;;;;;;;;;;;;;;;37.44;18.01;99150.59;5034253;28;19963;-80
2023/09/07 10:26:58;;;;;;;;;;;;;;;37.28;17.92;99155.34;5035269;28;19920;-80
2023/09/07 10:29:23;;;;;;;;;;;;;;;37.21;17.76;99158.41;5034038;28;19967;-78
2023/09/07 10:31:52;;;;;;;;;;;;;;;37.10;17.96;99152.19;5017593;28;19917;-78
2023/09/07 10:34:17;;;;;;;;;;;;;;;36.97;17.97;99158.25;5034152;28;20325;-79
2023/09/07 10:36:42;;;;;;;;;;;;;;;36.86;17.56;99157.50;5035128;28;19925;-80
2023/09/07 10:39:08;;;;;;;;;;;;;;;36.72;18.05;99162.72;5017441;28;20457;-78
2023/09/07 10:41:43;;;;;;;;;;;;;;;36.51;17.96;99153.81;5035161;28;20436;-79
2023/09/07 10:44:10;;;;;;;;;;;;;;;36.37;18.10;99155.50;5033467;28;19920;-79
2023/09/07 10:46:35;;;;;;;;;;;;;;;36.35;18.09;99157.69;5001855;28;20074;-78
2023/09/07 10:49:01;;;;;;;;;;;;;;;36.23;18.03;99144.41;5017178;28;20400;-81
2023/09/07 10:51:27;;;;;;;;;;;;;;;36.16;18.23;99150.09;5033455;28;19913;-79
2023/09/07 10:53:55;;;;;;;;;;;;;;;36.03;18.20;99151.50;5033566;28;19995;-81
2023/09/07 10:56:20;;;;;;;;;;;;;;;35.91;18.55;99148.25;5033866;28;19967;-81
2023/09/07 10:58:46;;;;;;;;;;;;;;;35.85;18.54;99139.31;5016692;28;20346;-78
2023/09/07 11:01:11;;;;;;;;;;;;;;;35.73;18.83;99138.78;5033793;28;20434;-77
2023/09/07 11:03:37;;;;;;;;;;;;;;;35.68;19.04;99138.78;5033077;28;20410;-79
2023/09/07 11:06:05;;;;;;;;;;;;;;;35.59;19.35;99137.69;5032928;28;19919;-77
2023/09/07 11:08:30;;;;;;;;;;;;;;;35.57;19.36;99135.25;5034404;28;19912;-79
2023/09/07 11:10:56;;;;;;;;;;;;;;;35.40;19.33;99134.72;5016757;28;20454;-76
2023/09/07 11:13:21;;;;;;;;;;;;;;;35.21;19.26;99135.22;5016640;28;19936;-77
2023/09/07 11:15:47;;;;;;;;;;;;;;;35.14;19.41;99121.09;5016997;28;20345;-78
2023/09/07 11:18:13;;;;;;;;;;;;;;;35.06;19.39;99117.03;5033473;28;19920;-79
2023/09/07 11:20:41;;;;;;;;;;;;;;;35.03;19.53;99114.84;5033026;28;20007;-79
2023/09/07 11:23:07;;;;;;;;;;;;;;;34.92;19.58;99124.88;5000416;28;20342;-78
2023/09/07 11:25:38;;;;;;;;;;;;;;;34.85;19.74;99115.34;5033007;28;20000;-78
2023/09/07 11:28:04;;;;;;;;;;;;;;;34.77;20.10;99128.34;5016165;28;19913;-78
2023/09/07 11:30:29;;;;;;;;;;;;;;;34.75;19.98;99113.44;5016780;28;19913;-77
2023/09/07 11:33:04;;;;;;;;;;;;;;;34.78;20.07;99104.78;5016477;28;20436;-77
2023/09/07 11:35:30;;;;;;;;;;;;;;;34.56;19.65;99105.75;5032613;28;19917;-77
2023/09/07 11:37:58;;;;;;;;;;;;;;;34.45;19.92;99109.50;5032986;28;19924;-76
2023/09/07 11:40:23;;;;;;;;;;;;;;;34.30;19.93;99110.28;5015889;28;19920;-79
2023/09/07 11:42:48;;;;;;;;;;;;;;;34.17;20.50;99110.72;5016632;28;19913;-78
2023/09/07 11:45:16;;;;;;;;;;;;;;;34.00;21.05;99102.75;5016126;28;19975;-79
2023/09/07 11:47:41;;;;;;;;;;;;;;;33.96;21.17;99105.19;5032456;28;19913;-77
2023/09/07 11:50:07;;;;;;;;;;;;;;;33.93;21.13;99103.00;5033847;28;20033;-78
2023/09/07 11:52:32;;;;;;;;;;;;;;;33.89;20.93;99093.78;5032460;28;19913;-78
2023/09/07 11:54:58;;;;;;;;;;;;;;;33.82;20.89;99090.47;5015752;28;20017;-78
2023/09/07 11:57:23;;;;;;;;;;;;;;;33.71;20.88;99100.44;5015628;28;19917;-77
2023/09/07 11:59:48;;;;;;;;;;;;;;;33.63;21.04;99088.16;5033621;28;19963;-79
2023/09/07 12:02:14;;;;;;;;;;;;;;;33.55;20.88;99091.34;5015117;28;19913;-77
2023/09/07 12:04:40;;;;;;;;;;;;;;;33.45;21.01;99092.09;5031856;28;20368;-78
2023/09/07 12:07:05;;;;;;;;;;;;;;;33.48;22.53;99078.06;5000979;28;19919;-78
2023/09/07 12:09:31;;;;;;;;;;;;;;;33.54;25.36;99089.72;5032848;28;19967;-80
2023/09/07 12:11:56;;;;;;;;;;;;;;;33.47;24.75;99086.44;5032393;28;19944;-79
2023/09/07 12:14:22;;;;;;;;;;;;;;;33.44;24.54;99085.03;5015537;28;19920;-82
2023/09/07 12:16:47;;;;;;;;;;;;;;;33.44;24.46;99086.94;5016005;28;19917;-82
2023/09/07 12:19:13;;;;;;;;;;;;;;;33.53;24.29;99085.41;5016322;28;20386;-79
2023/09/07 12:21:38;;;;;;;;;;;;;;;33.56;23.94;99075.94;5015198;28;20285;-79
2023/09/07 12:24:07;;;;;;;;;;;;;;;33.59;24.04;99080.81;5015392;28;19919;-80
2023/09/07 12:26:32;;;;;;;;;;;;;;;33.53;23.52;99078.09;5032054;28;19920;-78
2023/09/07 12:28:57;;;;;;;;;;;;;;;33.55;23.05;99069.72;5032879;28;19917;-79
2023/09/07 12:31:23;;;;;;;;;;;;;;;33.47;23.20;99087.25;5014777;28;19999;-80
2023/09/07 12:33:48;;;;;;;;;;;;;;;33.47;22.54;99083.72;5031359;28;19916;-78
2023/09/07 12:36:14;;;;;;;;;;;;;;;33.40;22.73;99081.25;4999051;28;20242;-78
2023/09/07 12:38:39;;;;;;;;;;;;;;;33.38;22.67;99079.88;5015016;28;20291;-80
2023/09/07 12:41:05;;;;;;;;;;;;;;;33.42;22.83;99076.38;5014977;28;19943;-78